sensor_id;sensor_type;location;lat;lon;timestamp;pressure;altitude;pressure_sealevel;temperature;humidity
67517;BME280;54359;59.124;37.910;2022-09-28T00:01:14;99463.56;;;9.09;82.33
67517;BME280;54359;59.124;37.910;2022-09-28T00:03:40;99465.28;;;9.12;82.80
67517;BME280;54359;59.124;37.910;2022-09-28T00:06:08;99469.59;;;9.16;82.52
67517;BME280;54359;59.124;37.910;2022-09-28T00:08:35;99462.78;;;9.19;81.60
67517;BME280;54359;59.124;37.910;2022-09-28T00:11:02;99467.06;;;9.22;82.67
67517;BME280;54359;59.124;37.910;2022-09-28T00:13:28;99464.50;;;9.22;81.86
67517;BME280;54359;59.124;37.910;2022-09-28T00:16:05;99461.94;;;9.22;82.50
67517;BME280;54359;59.124;37.910;2022-09-28T00:18:32;99466.22;;;9.24;82.43
67517;BME280;54359;59.124;37.910;2022-09-28T00:21:03;99465.41;;;9.25;83.10
67517;BME280;54359;59.124;37.910;2022-09-28T00:23:29;99468.00;;;9.27;81.51
67517;BME280;54359;59.124;37.910;2022-09-28T00:25:55;99467.97;;;9.29;82.77
67517;BME280;54359;59.124;37.910;2022-09-28T00:28:21;99463.69;;;9.23;82.36
67517;BME280;54359;59.124;37.910;2022-09-28T00:30:47;99468.84;;;9.27;82.33
67517;BME280;54359;59.124;37.910;2022-09-28T00:33:13;99468.81;;;9.26;81.87
67517;BME280;54359;59.124;37.910;2022-09-28T00:35:39;99455.09;;;9.22;82.22
67517;BME280;54359;59.124;37.910;2022-09-28T00:38:05;99467.97;;;9.25;82.70
67517;BME280;54359;59.124;37.910;2022-09-28T00:40:33;99458.56;;;9.23;82.24
67517;BME280;54359;59.124;37.910;2022-09-28T00:43:15;99461.13;;;9.23;82.71
67517;BME280;54359;59.124;37.910;2022-09-28T00:45:42;99457.66;;;9.22;82.04
67517;BME280;54359;59.124;37.910;2022-09-28T00:48:08;99459.38;;;9.20;82.19
67517;BME280;54359;59.124;37.910;2022-09-28T00:50:35;99455.13;;;9.21;82.56
67517;BME280;54359;59.124;37.910;2022-09-28T00:53:14;99449.09;;;9.17;82.07
67517;BME280;54359;59.124;37.910;2022-09-28T00:56:00;99458.53;;;9.21;82.59
67517;BME280;54359;59.124;37.910;2022-09-28T00:58:32;99453.44;;;9.23;82.39
67517;BME280;54359;59.124;37.910;2022-09-28T01:00:59;99451.69;;;9.22;82.75
67517;BME280;54359;59.124;37.910;2022-09-28T01:03:26;99450.00;;;9.24;81.96
67517;BME280;54359;59.124;37.910;2022-09-28T01:05:55;99447.44;;;9.24;81.53
67517;BME280;54359;59.124;37.910;2022-09-28T01:08:23;99450.00;;;9.25;81.48
67517;BME280;54359;59.124;37.910;2022-09-28T01:10:53;99450.00;;;9.25;82.08
67517;BME280;54359;59.124;37.910;2022-09-28T01:13:20;99441.47;;;9.25;82.13
67517;BME280;54359;59.124;37.910;2022-09-28T01:16:12;99440.59;;;9.24;83.06
67517;BME280;54359;59.124;37.910;2022-09-28T01:21:20;99443.16;;;9.24;82.14
67517;BME280;54359;59.124;37.910;2022-09-28T01:27:01;99435.50;;;9.27;81.69
67517;BME280;54359;59.124;37.910;2022-09-28T01:32:41;99433.81;;;9.31;82.49
67517;BME280;54359;59.124;37.910;2022-09-28T01:35:22;99426.91;;;9.22;82.44
67517;BME280;54359;59.124;37.910;2022-09-28T01:37:52;99438.09;;;9.34;82.14
67517;BME280;54359;59.124;37.910;2022-09-28T01:40:24;99427.81;;;9.31;82.35
67517;BME280;54359;59.124;37.910;2022-09-28T01:42:55;99433.81;;;9.34;82.17
67517;BME280;54359;59.124;37.910;2022-09-28T01:45:27;99436.38;;;9.31;82.14
67517;BME280;54359;59.124;37.910;2022-09-28T01:47:58;99438.94;;;9.34;82.58
67517;BME280;54359;59.124;37.910;2022-09-28T01:50:28;99437.25;;;9.35;82.04
67517;BME280;54359;59.124;37.910;2022-09-28T01:53:05;99437.25;;;9.33;81.79
67517;BME280;54359;59.124;37.910;2022-09-28T01:55:36;99425.25;;;9.29;82.69
67517;BME280;54359;59.124;37.910;2022-09-28T01:58:35;99426.97;;;9.30;82.33
67517;BME280;54359;59.124;37.910;2022-09-28T02:01:08;99434.66;;;9.30;82.37
67517;BME280;54359;59.124;37.910;2022-09-28T02:03:39;99430.38;;;9.29;82.19
67517;BME280;54359;59.124;37.910;2022-09-28T02:06:35;99426.94;;;9.27;82.79
67517;BME280;54359;59.124;37.910;2022-09-28T02:09:10;99426.03;;;9.17;82.98
67517;BME280;54359;59.124;37.910;2022-09-28T02:11:44;99438.03;;;9.24;83.01
67517;BME280;54359;59.124;37.910;2022-09-28T02:14:14;99440.59;;;9.23;82.49
67517;BME280;54359;59.124;37.910;2022-09-28T02:16:46;99442.28;;;9.22;81.92
67517;BME280;54359;59.124;37.910;2022-09-28T02:19:22;99435.41;;;9.18;82.14
67517;BME280;54359;59.124;37.910;2022-09-28T02:21:53;99433.72;;;9.20;82.83
67517;BME280;54359;59.124;37.910;2022-09-28T02:24:27;99432.03;;;9.19;82.66
67517;BME280;54359;59.124;37.910;2022-09-28T02:27:00;99438.00;;;9.17;82.54
67517;BME280;54359;59.124;37.910;2022-09-28T02:29:32;99433.69;;;9.14;81.44
67517;BME280;54359;59.124;37.910;2022-09-28T02:31:58;99436.25;;;9.13;82.27
67517;BME280;54359;59.124;37.910;2022-09-28T02:34:25;99429.38;;;9.10;82.26
67517;BME280;54359;59.124;37.910;2022-09-28T02:36:51;99419.03;;;8.99;82.46
67517;BME280;54359;59.124;37.910;2022-09-28T02:39:18;99427.59;;;9.01;82.24
67517;BME280;54359;59.124;37.910;2022-09-28T02:41:50;99423.31;;;9.02;82.52
67517;BME280;54359;59.124;37.910;2022-09-28T02:55:12;99420.59;;;8.79;82.09
67517;BME280;54359;59.124;37.910;2022-09-28T03:07:23;99428.19;;;8.71;82.37
67517;BME280;54359;59.124;37.910;2022-09-28T03:12:28;99409.41;;;8.71;81.84
67517;BME280;54359;59.124;37.910;2022-09-28T03:15:25;99409.44;;;8.75;82.57
67517;BME280;54359;59.124;37.910;2022-09-28T03:17:55;99414.59;;;8.77;82.37
67517;BME280;54359;59.124;37.910;2022-09-28T03:20:21;99404.31;;;8.72;81.82
67517;BME280;54359;59.124;37.910;2022-09-28T03:22:49;99411.16;;;8.75;81.94
67517;BME280;54359;59.124;37.910;2022-09-28T03:25:14;99409.47;;;8.77;82.08
67517;BME280;54359;59.124;37.910;2022-09-28T03:27:42;99408.59;;;8.75;82.67
67517;BME280;54359;59.124;37.910;2022-09-28T03:30:09;99411.16;;;8.75;81.85
67517;BME280;54359;59.124;37.910;2022-09-28T03:32:37;99405.19;;;8.74;82.20
67517;BME280;54359;59.124;37.910;2022-09-28T03:35:05;99402.63;;;8.74;81.94
67517;BME280;54359;59.124;37.910;2022-09-28T03:37:32;99396.63;;;8.75;82.78
67517;BME280;54359;59.124;37.910;2022-09-28T03:39:58;99397.50;;;8.76;82.86
67517;BME280;54359;59.124;37.910;2022-09-28T03:42:24;99394.09;;;8.77;82.14
67517;BME280;54359;59.124;37.910;2022-09-28T03:44:50;99372.63;;;8.62;82.62
67517;BME280;54359;59.124;37.910;2022-09-28T03:47:18;99404.34;;;8.78;81.83
67517;BME280;54359;59.124;37.910;2022-09-28T03:49:44;99403.50;;;8.79;82.03
67517;BME280;54359;59.124;37.910;2022-09-28T03:52:12;99388.13;;;8.76;82.13
67517;BME280;54359;59.124;37.910;2022-09-28T03:54:39;99397.53;;;8.80;81.67
67517;BME280;54359;59.124;37.910;2022-09-28T03:57:06;99393.28;;;8.81;81.99
67517;BME280;54359;59.124;37.910;2022-09-28T03:59:32;99388.13;;;8.78;82.35
67517;BME280;54359;59.124;37.910;2022-09-28T04:02:03;99383.84;;;8.74;82.59
67517;BME280;54359;59.124;37.910;2022-09-28T04:04:30;99388.13;;;8.79;82.92
67517;BME280;54359;59.124;37.910;2022-09-28T04:06:57;99377.88;;;8.79;82.11
67517;BME280;54359;59.124;37.910;2022-09-28T04:09:24;99380.44;;;8.81;81.72
67517;BME280;54359;59.124;37.910;2022-09-28T04:11:50;99375.31;;;8.81;82.39
67517;BME280;54359;59.124;37.910;2022-09-28T04:14:16;99371.91;;;8.79;81.88
67517;BME280;54359;59.124;37.910;2022-09-28T04:16:43;99373.63;;;8.81;82.27
67517;BME280;54359;59.124;37.910;2022-09-28T04:19:13;99365.06;;;8.81;82.38
67517;BME280;54359;59.124;37.910;2022-09-28T04:21:58;99368.47;;;8.78;82.81
67517;BME280;54359;59.124;37.910;2022-09-28T04:24:32;99371.91;;;8.79;82.28
67517;BME280;54359;59.124;37.910;2022-09-28T04:26:58;99360.75;;;8.75;82.51
67517;BME280;54359;59.124;37.910;2022-09-28T04:29:44;99363.38;;;8.81;82.38
67517;BME280;54359;59.124;37.910;2022-09-28T04:32:12;99350.56;;;8.80;81.66
67517;BME280;54359;59.124;37.910;2022-09-28T04:34:39;99346.25;;;8.77;82.65
67517;BME280;54359;59.124;37.910;2022-09-28T04:37:05;99336.88;;;8.76;81.81
67517;BME280;54359;59.124;37.910;2022-09-28T04:39:31;99343.72;;;8.80;82.07
67517;BME280;54359;59.124;37.910;2022-09-28T04:41:57;99344.59;;;8.85;82.38
67517;BME280;54359;59.124;37.910;2022-09-28T04:44:27;99332.66;;;8.86;82.43
67517;BME280;54359;59.124;37.910;2022-09-28T04:46:58;99329.25;;;8.89;82.45
67517;BME280;54359;59.124;37.910;2022-09-28T04:49:44;99325.00;;;8.94;82.49
67517;BME280;54359;59.124;37.910;2022-09-28T04:52:15;99321.66;;;9.01;82.57
67517;BME280;54359;59.124;37.910;2022-09-28T04:54:43;99306.19;;;8.92;82.60
67517;BME280;54359;59.124;37.910;2022-09-28T04:57:09;99338.75;;;9.05;82.36
67517;BME280;54359;59.124;37.910;2022-09-28T04:59:36;99322.53;;;9.06;82.48
67517;BME280;54359;59.124;37.910;2022-09-28T05:02:03;99323.38;;;9.08;82.32
67517;BME280;54359;59.124;37.910;2022-09-28T05:04:48;99325.97;;;9.06;82.07
67517;BME280;54359;59.124;37.910;2022-09-28T05:07:36;99309.69;;;9.01;82.26
67517;BME280;54359;59.124;37.910;2022-09-28T05:10:05;99313.94;;;8.99;82.32
67517;BME280;54359;59.124;37.910;2022-09-28T05:12:31;99305.41;;;8.99;82.53
67517;BME280;54359;59.124;37.910;2022-09-28T05:14:58;99303.72;;;9.02;82.31
67517;BME280;54359;59.124;37.910;2022-09-28T05:17:25;99307.16;;;9.04;82.28
67517;BME280;54359;59.124;37.910;2022-09-28T05:20:17;99298.59;;;9.05;82.08
67517;BME280;54359;59.124;37.910;2022-09-28T05:22:44;99300.31;;;9.10;82.03
67517;BME280;54359;59.124;37.910;2022-09-28T05:25:11;99301.22;;;9.15;82.07
67517;BME280;54359;59.124;37.910;2022-09-28T05:27:58;99293.50;;;9.13;82.01
67517;BME280;54359;59.124;37.910;2022-09-28T05:30:48;99291.81;;;9.15;82.11
67517;BME280;54359;59.124;37.910;2022-09-28T05:33:47;99283.25;;;9.16;81.37
67517;BME280;54359;59.124;37.910;2022-09-28T05:36:29;99269.56;;;9.10;82.47
67517;BME280;54359;59.124;37.910;2022-09-28T05:38:58;99280.75;;;9.21;82.57
67517;BME280;54359;59.124;37.910;2022-09-28T05:41:28;99279.88;;;9.26;82.51
67517;BME280;54359;59.124;37.910;2022-09-28T05:44:02;99277.38;;;9.34;82.37
67517;BME280;54359;59.124;37.910;2022-09-28T05:46:38;99271.38;;;9.34;82.72
67517;BME280;54359;59.124;37.910;2022-09-28T05:49:05;99262.88;;;9.39;81.67
67517;BME280;54359;59.124;37.910;2022-09-28T05:51:38;99263.72;;;9.40;81.84
67517;BME280;54359;59.124;37.910;2022-09-28T05:54:14;99271.41;;;9.40;81.94
67517;BME280;54359;59.124;37.910;2022-09-28T05:56:44;99262.84;;;9.33;81.25
67517;BME280;54359;59.124;37.910;2022-09-28T05:59:10;99257.72;;;9.33;81.98
67517;BME280;54359;59.124;37.910;2022-09-28T06:01:37;99263.69;;;9.34;81.47
67517;BME280;54359;59.124;37.910;2022-09-28T06:04:06;99254.28;;;9.30;82.02
67517;BME280;54359;59.124;37.910;2022-09-28T06:06:35;99258.56;;;9.35;82.10
67517;BME280;54359;59.124;37.910;2022-09-28T06:09:03;99248.28;;;9.32;81.55
67517;BME280;54359;59.124;37.910;2022-09-28T06:11:47;99252.56;;;9.30;81.94
67517;BME280;54359;59.124;37.910;2022-09-28T06:14:28;99242.28;;;9.29;81.53
67517;BME280;54359;59.124;37.910;2022-09-28T06:16:54;99240.59;;;9.29;81.66
67517;BME280;54359;59.124;37.910;2022-09-28T06:19:22;99247.41;;;9.29;82.04
67517;BME280;54359;59.124;37.910;2022-09-28T06:22:07;99234.59;;;9.29;82.21
67517;BME280;54359;59.124;37.910;2022-09-28T06:24:41;99253.41;;;9.32;81.25
67517;BME280;54359;59.124;37.910;2022-09-28T06:27:07;99250.00;;;9.33;81.45
67517;BME280;54359;59.124;37.910;2022-09-28T06:29:34;99242.31;;;9.32;81.68
67517;BME280;54359;59.124;37.910;2022-09-28T06:32:01;99250.84;;;9.27;81.34
67517;BME280;54359;59.124;37.910;2022-09-28T06:34:27;99239.72;;;9.21;82.02
67517;BME280;54359;59.124;37.910;2022-09-28T06:36:55;99232.84;;;9.18;82.06
67517;BME280;54359;59.124;37.910;2022-09-28T06:39:22;99230.25;;;9.12;82.01
67517;BME280;54359;59.124;37.910;2022-09-28T06:41:49;99237.94;;;9.04;82.13
67517;BME280;54359;59.124;37.910;2022-09-28T06:44:18;99223.34;;;8.97;82.06
67517;BME280;54359;59.124;37.910;2022-09-28T06:47:16;99225.94;;;9.00;82.06
67517;BME280;54359;59.124;37.910;2022-09-28T06:49:54;99216.53;;;8.99;82.16
67517;BME280;54359;59.124;37.910;2022-09-28T06:52:20;99226.81;;;9.02;82.06
67517;BME280;54359;59.124;37.910;2022-09-28T06:55:12;99226.81;;;9.01;82.25
67517;BME280;54359;59.124;37.910;2022-09-28T06:57:41;99221.69;;;9.10;81.77
67517;BME280;54359;59.124;37.910;2022-09-28T07:00:07;99219.13;;;9.07;82.00
67517;BME280;54359;59.124;37.910;2022-09-28T07:02:33;99203.72;;;9.01;81.71
67517;BME280;54359;59.124;37.910;2022-09-28T07:05:13;99218.28;;;9.08;82.43
67517;BME280;54359;59.124;37.910;2022-09-28T07:08:01;99207.16;;;9.03;81.75
67517;BME280;54359;59.124;37.910;2022-09-28T07:10:57;99218.31;;;9.11;81.89
67517;BME280;54359;59.124;37.910;2022-09-28T07:13:39;99204.63;;;9.09;81.92
67517;BME280;54359;59.124;37.910;2022-09-28T07:16:06;99199.47;;;9.12;82.20
67517;BME280;54359;59.124;37.910;2022-09-28T07:18:32;99199.47;;;9.06;81.82
67517;BME280;54359;59.124;37.910;2022-09-28T07:20:58;99202.06;;;9.11;81.59
67517;BME280;54359;59.124;37.910;2022-09-28T07:23:27;99204.59;;;9.07;81.85
67517;BME280;54359;59.124;37.910;2022-09-28T07:26:12;99197.75;;;9.05;82.40
67517;BME280;54359;59.124;37.910;2022-09-28T07:28:50;99198.66;;;9.15;82.36
67517;BME280;54359;59.124;37.910;2022-09-28T07:31:29;99201.19;;;9.12;81.97
67517;BME280;54359;59.124;37.910;2022-09-28T07:34:13;99183.25;;;9.07;81.47
67517;BME280;54359;59.124;37.910;2022-09-28T07:36:58;99194.38;;;9.15;82.39
67517;BME280;54359;59.124;37.910;2022-09-28T07:39:24;99184.13;;;9.18;82.32
67517;BME280;54359;59.124;37.910;2022-09-28T07:41:50;99188.41;;;9.19;82.24
67517;BME280;54359;59.124;37.910;2022-09-28T07:44:17;99178.16;;;9.15;82.17
67517;BME280;54359;59.124;37.910;2022-09-28T07:46:47;99175.59;;;9.15;81.77
67517;BME280;54359;59.124;37.910;2022-09-28T07:49:20;99172.19;;;9.19;81.87
67517;BME280;54359;59.124;37.910;2022-09-28T07:52:20;99172.19;;;9.23;82.08
67517;BME280;54359;59.124;37.910;2022-09-28T07:55:07;99171.34;;;9.27;81.68
67517;BME280;54359;59.124;37.910;2022-09-28T07:57:55;99173.88;;;9.24;81.93
67517;BME280;54359;59.124;37.910;2022-09-28T08:00:46;99166.19;;;9.17;81.89
67517;BME280;54359;59.124;37.910;2022-09-28T08:03:17;99161.06;;;9.15;81.97
67517;BME280;54359;59.124;37.910;2022-09-28T08:05:48;99158.47;;;9.12;82.27
67517;BME280;54359;59.124;37.910;2022-09-28T08:08:14;99168.72;;;9.09;82.02
67517;BME280;54359;59.124;37.910;2022-09-28T08:10:42;99166.16;;;9.04;82.10
67517;BME280;54359;59.124;37.910;2022-09-28T08:13:21;99157.56;;;8.99;81.84
67517;BME280;54359;59.124;37.910;2022-09-28T08:19:08;99147.28;;;8.84;82.67
67517;BME280;54359;59.124;37.910;2022-09-28T08:21:34;99155.84;;;8.92;82.15
67517;BME280;54359;59.124;37.910;2022-09-28T08:24:38;99164.41;;;8.93;82.49
67517;BME280;54359;59.124;37.910;2022-09-28T08:27:08;99152.44;;;8.98;82.61
67517;BME280;54359;59.124;37.910;2022-09-28T08:29:37;99147.31;;;8.96;81.70
67517;BME280;54359;59.124;37.910;2022-09-28T08:32:23;99150.75;;;8.97;82.42
67517;BME280;54359;59.124;37.910;2022-09-28T08:35:20;99135.34;;;8.94;81.60
67517;BME280;54359;59.124;37.910;2022-09-28T08:38:11;99145.59;;;8.95;81.94
67517;BME280;54359;59.124;37.910;2022-09-28T08:44:11;99129.41;;;9.07;82.04
67517;BME280;54359;59.124;37.910;2022-09-28T08:47:13;99129.41;;;9.10;82.09
67517;BME280;54359;59.124;37.910;2022-09-28T08:50:21;99129.44;;;9.15;81.80
67517;BME280;54359;59.124;37.910;2022-09-28T08:53:12;99130.28;;;9.18;82.47
67517;BME280;54359;59.124;37.910;2022-09-28T08:56:28;99121.75;;;9.21;81.86
67517;BME280;54359;59.124;37.910;2022-09-28T08:59:02;99126.03;;;9.25;82.19
67517;BME280;54359;59.124;37.910;2022-09-28T09:01:36;99114.94;;;9.27;81.89
67517;BME280;54359;59.124;37.910;2022-09-28T09:04:07;99097.84;;;9.25;82.70
67517;BME280;54359;59.124;37.910;2022-09-28T09:07:19;99099.50;;;9.24;82.06
67517;BME280;54359;59.124;37.910;2022-09-28T09:13:22;99095.28;;;9.36;81.88
67517;BME280;54359;59.124;37.910;2022-09-28T09:16:31;99096.09;;;9.35;81.83
67517;BME280;54359;59.124;37.910;2022-09-28T09:19:52;99092.72;;;9.31;81.46
67517;BME280;54359;59.124;37.910;2022-09-28T09:22:38;99101.25;;;9.21;81.85
67517;BME280;54359;59.124;37.910;2022-09-28T09:33:50;99083.25;;;8.99;82.28
67517;BME280;54359;59.124;37.910;2022-09-28T09:49:33;99080.66;;;8.87;82.17
67517;BME280;54359;59.124;37.910;2022-09-28T09:52:21;99084.91;;;8.86;81.62
67517;BME280;54359;59.124;37.910;2022-09-28T09:55:09;99077.25;;;8.88;81.49
67517;BME280;54359;59.124;37.910;2022-09-28T09:58:03;99072.09;;;8.80;81.46
67517;BME280;54359;59.124;37.910;2022-09-28T10:00:39;99079.78;;;8.76;81.30
67517;BME280;54359;59.124;37.910;2022-09-28T10:03:32;99073.75;;;8.69;82.20
67517;BME280;54359;59.124;37.910;2022-09-28T10:06:29;99066.91;;;8.63;81.71
67517;BME280;54359;59.124;37.910;2022-09-28T10:09:22;99071.22;;;8.68;82.00
67517;BME280;54359;59.124;37.910;2022-09-28T10:11:50;99066.06;;;8.64;82.10
67517;BME280;54359;59.124;37.910;2022-09-28T10:14:21;99067.78;;;8.65;82.22
67517;BME280;54359;59.124;37.910;2022-09-28T10:17:15;99066.06;;;8.66;82.11
67517;BME280;54359;59.124;37.910;2022-09-28T10:20:00;99059.22;;;8.66;81.76
67517;BME280;54359;59.124;37.910;2022-09-28T10:23:03;99062.66;;;8.69;81.68
67517;BME280;54359;59.124;37.910;2022-09-28T10:25:35;99054.97;;;8.70;82.16
67517;BME280;54359;59.124;37.910;2022-09-28T10:28:04;99054.97;;;8.69;81.76
67517;BME280;54359;59.124;37.910;2022-09-28T10:30:37;99049.00;;;8.68;81.99
67517;BME280;54359;59.124;37.910;2022-09-28T10:33:31;99048.97;;;8.65;81.75
67517;BME280;54359;59.124;37.910;2022-09-28T10:36:01;99044.69;;;8.61;81.49
67517;BME280;54359;59.124;37.910;2022-09-28T10:38:33;99040.41;;;8.57;81.68
67517;BME280;54359;59.124;37.910;2022-09-28T10:41:11;99028.44;;;8.50;81.63
67517;BME280;54359;59.124;37.910;2022-09-28T10:44:00;99048.91;;;8.48;82.43
67517;BME280;54359;59.124;37.910;2022-09-28T10:47:01;99044.66;;;8.45;82.03
67517;BME280;54359;59.124;37.910;2022-09-28T10:49:47;99011.25;;;8.27;81.66
67517;BME280;54359;59.124;37.910;2022-09-28T10:52:39;99031.78;;;8.39;81.80
67517;BME280;54359;59.124;37.910;2022-09-28T10:57:47;99028.41;;;8.42;81.48
67517;BME280;54359;59.124;37.910;2022-09-28T11:00:30;99024.16;;;8.41;82.06
67517;BME280;54359;59.124;37.910;2022-09-28T11:03:26;99009.56;;;8.29;82.02
67517;BME280;54359;59.124;37.910;2022-09-28T11:05:58;99024.09;;;8.35;82.54
67517;BME280;54359;59.124;37.910;2022-09-28T11:08:37;99020.66;;;8.36;81.78
67517;BME280;54359;59.124;37.910;2022-09-28T11:11:10;99016.41;;;8.36;81.93
67517;BME280;54359;59.124;37.910;2022-09-28T11:13:38;99021.50;;;8.30;82.14
67517;BME280;54359;59.124;37.910;2022-09-28T11:16:24;99003.56;;;8.25;81.82
67517;BME280;54359;59.124;37.910;2022-09-28T11:18:53;99007.88;;;8.33;82.20
67517;BME280;54359;59.124;37.910;2022-09-28T11:21:24;99007.06;;;8.41;82.08
67517;BME280;54359;59.124;37.910;2022-09-28T11:24:19;99017.34;;;8.51;82.02
67517;BME280;54359;59.124;37.910;2022-09-28T11:26:53;98987.44;;;8.43;82.56
67517;BME280;54359;59.124;37.910;2022-09-28T11:29:37;99008.84;;;8.58;81.90
67517;BME280;54359;59.124;37.910;2022-09-28T11:32:30;98990.91;;;8.61;82.67
67517;BME280;54359;59.124;37.910;2022-09-28T11:36:20;98992.63;;;8.62;81.85
67517;BME280;54359;59.124;37.910;2022-09-28T11:39:10;98988.38;;;8.65;82.06
67517;BME280;54359;59.124;37.910;2022-09-28T11:42:10;98996.06;;;8.76;81.96
67517;BME280;54359;59.124;37.910;2022-09-28T11:48:40;98984.97;;;8.85;81.87
67517;BME280;54359;59.124;37.910;2022-09-28T11:51:23;98958.47;;;8.69;81.66
67517;BME280;54359;59.124;37.910;2022-09-28T11:54:04;98944.78;;;8.53;81.75
67517;BME280;54359;59.124;37.910;2022-09-28T11:56:44;98945.66;;;8.58;81.94
67517;BME280;54359;59.124;37.910;2022-09-28T12:02:20;98949.88;;;8.45;82.23
67517;BME280;54359;59.124;37.910;2022-09-28T12:08:56;98971.22;;;8.46;82.24
67517;BME280;54359;59.124;37.910;2022-09-28T12:14:56;98953.22;;;8.29;82.26
67517;BME280;54359;59.124;37.910;2022-09-28T12:17:37;98937.81;;;8.15;82.30
67517;BME280;54359;59.124;37.910;2022-09-28T12:20:19;98972.88;;;8.29;82.31
67517;BME280;54359;59.124;37.910;2022-09-28T12:23:13;98958.31;;;8.18;81.54
67517;BME280;54359;59.124;37.910;2022-09-28T12:25:56;98962.56;;;8.19;82.36
67517;BME280;54359;59.124;37.910;2022-09-28T12:30:59;98946.34;;;8.08;81.87
67517;BME280;54359;59.124;37.910;2022-09-28T12:33:32;98956.56;;;8.10;82.36
67517;BME280;54359;59.124;37.910;2022-09-28T12:41:40;98950.59;;;8.04;81.72
67517;BME280;54359;59.124;37.910;2022-09-28T12:47:27;98930.91;;;7.90;82.25
67517;BME280;54359;59.124;37.910;2022-09-28T12:55:41;98936.91;;;7.96;82.29
67517;BME280;54359;59.124;37.910;2022-09-28T13:01:42;98926.66;;;7.95;82.60
67517;BME280;54359;59.124;37.910;2022-09-28T13:07:11;98893.31;;;7.75;81.95
67517;BME280;54359;59.124;37.910;2022-09-28T13:12:51;98924.94;;;7.95;81.91
67517;BME280;54359;59.124;37.910;2022-09-28T13:18:05;98921.56;;;8.01;82.24
67517;BME280;54359;59.124;37.910;2022-09-28T13:20:43;98932.66;;;8.04;82.60
67517;BME280;54359;59.124;37.910;2022-09-28T13:23:29;98917.28;;;7.98;82.05
67517;BME280;54359;59.124;37.910;2022-09-28T13:26:06;98902.78;;;7.90;81.94
67517;BME280;54359;59.124;37.910;2022-09-28T13:28:36;98889.91;;;7.76;81.81
67517;BME280;54359;59.124;37.910;2022-09-28T13:31:03;98928.38;;;7.96;82.33
67517;BME280;54359;59.124;37.910;2022-09-28T13:33:34;98929.22;;;7.95;82.24
67517;BME280;54359;59.124;37.910;2022-09-28T13:36:41;98933.47;;;7.93;82.22
67517;BME280;54359;59.124;37.910;2022-09-28T13:39:33;98897.56;;;7.71;82.47
67517;BME280;54359;59.124;37.910;2022-09-28T13:42:01;98918.06;;;7.80;82.14
67517;BME280;54359;59.124;37.910;2022-09-28T13:44:47;98903.50;;;7.69;82.39
67517;BME280;54359;59.124;37.910;2022-09-28T13:52:50;98922.34;;;7.84;82.58
67517;BME280;54359;59.124;37.910;2022-09-28T13:58:05;98930.00;;;7.83;82.48
67517;BME280;54359;59.124;37.910;2022-09-28T14:00:47;98935.97;;;7.77;82.13
67517;BME280;54359;59.124;37.910;2022-09-28T14:03:26;98927.44;;;7.75;81.87
67517;BME280;54359;59.124;37.910;2022-09-28T14:06:07;98916.25;;;7.58;82.03
67517;BME280;54359;59.124;37.910;2022-09-28T14:09:06;98921.38;;;7.62;82.48
67517;BME280;54359;59.124;37.910;2022-09-28T14:16:38;98901.72;;;7.52;82.24
67517;BME280;54359;59.124;37.910;2022-09-28T14:19:24;98916.19;;;7.50;82.37
67517;BME280;54359;59.124;37.910;2022-09-28T14:32:40;98933.19;;;7.37;82.62
67517;BME280;54359;59.124;37.910;2022-09-28T14:35:19;98903.28;;;7.24;82.35
67517;BME280;54359;59.124;37.910;2022-09-28T14:37:50;98935.78;;;7.40;82.12
67517;BME280;54359;59.124;37.910;2022-09-28T14:41:04;98922.06;;;7.31;82.63
67517;BME280;54359;59.124;37.910;2022-09-28T14:54:12;98949.31;;;7.32;82.54
67517;BME280;54359;59.124;37.910;2022-09-28T14:56:43;98947.59;;;7.28;82.42
67517;BME280;54359;59.124;37.910;2022-09-28T14:59:30;98918.47;;;7.04;82.45
67517;BME280;54359;59.124;37.910;2022-09-28T15:02:11;98912.47;;;7.00;82.41
67517;BME280;54359;59.124;37.910;2022-09-28T15:05:15;98939.84;;;7.17;82.46
67517;BME280;54359;59.124;37.910;2022-09-28T15:07:50;98936.44;;;7.15;82.37
67517;BME280;54359;59.124;37.910;2022-09-28T15:10:33;98918.38;;;6.92;82.58
67517;BME280;54359;59.124;37.910;2022-09-28T15:13:24;98932.94;;;7.05;82.53
67517;BME280;54359;59.124;37.910;2022-09-28T15:15:54;98940.66;;;7.08;82.50
67517;BME280;54359;59.124;37.910;2022-09-28T15:21:40;98941.41;;;6.93;82.58
67517;BME280;54359;59.124;37.910;2022-09-28T15:24:30;98948.22;;;6.99;82.38
67517;BME280;54359;59.124;37.910;2022-09-28T15:26:59;98934.53;;;6.88;82.54
67517;BME280;54359;59.124;37.910;2022-09-28T15:29:26;98927.69;;;6.87;82.84
67517;BME280;54359;59.124;37.910;2022-09-28T15:31:57;98942.25;;;6.94;82.49
67517;BME280;54359;59.124;37.910;2022-09-28T15:34:27;98925.94;;;6.79;82.42
67517;BME280;54359;59.124;37.910;2022-09-28T15:37:14;98940.41;;;6.80;82.56
67517;BME280;54359;59.124;37.910;2022-09-28T15:39:41;98926.72;;;6.72;82.54
67517;BME280;54359;59.124;37.910;2022-09-28T15:42:08;98932.72;;;6.73;82.53
67517;BME280;54359;59.124;37.910;2022-09-28T15:44:35;98933.59;;;6.79;82.40
67517;BME280;54359;59.124;37.910;2022-09-28T15:47:15;98939.59;;;6.81;82.63
67517;BME280;54359;59.124;37.910;2022-09-28T15:49:55;98951.56;;;6.90;82.93
67517;BME280;54359;59.124;37.910;2022-09-28T15:52:51;98964.38;;;6.92;82.39
67517;BME280;54359;59.124;37.910;2022-09-28T15:55:36;98927.59;;;6.73;82.81
67517;BME280;54359;59.124;37.910;2022-09-28T15:58:21;98928.38;;;6.65;82.38
67517;BME280;54359;59.124;37.910;2022-09-28T16:00:50;98915.59;;;6.62;82.89
67517;BME280;54359;59.124;37.910;2022-09-28T16:03:29;98964.34;;;6.90;82.74
67517;BME280;54359;59.124;37.910;2022-09-28T16:06:23;98930.16;;;6.76;82.47
67517;BME280;54359;59.124;37.910;2022-09-28T16:08:49;98951.50;;;6.81;82.39
67517;BME280;54359;59.124;37.910;2022-09-28T16:11:28;98953.19;;;6.79;82.79
67517;BME280;54359;59.124;37.910;2022-09-28T16:14:06;98915.47;;;6.52;82.51
67517;BME280;54359;59.124;37.910;2022-09-28T16:16:47;98958.25;;;6.73;82.50